createdAt,value
2023-02-21T00:02:36.233Z,-85
2023-02-21T00:05:22.868Z,-85
2023-02-21T00:08:08.775Z,-85
2023-02-21T00:10:54.813Z,-86
2023-02-21T00:13:42.074Z,-85
2023-02-21T00:16:28.255Z,-85
2023-02-21T00:19:14.585Z,-86
2023-02-21T00:22:00.587Z,-85
2023-02-21T00:24:46.372Z,-85
2023-02-21T00:27:32.497Z,-85
2023-02-21T00:30:19.933Z,-85
2023-02-21T00:33:07.179Z,-86
2023-02-21T00:35:53.397Z,-85
2023-02-21T00:38:39.428Z,-84
2023-02-21T00:41:25.597Z,-85
2023-02-21T00:44:11.718Z,-85
2023-02-21T00:46:59.164Z,-85
2023-02-21T00:49:44.893Z,-85
2023-02-21T00:52:30.849Z,-85
2023-02-21T00:55:17.330Z,-84
2023-02-21T00:58:03.284Z,-85
2023-02-21T01:00:49.167Z,-85
2023-02-21T01:03:36.407Z,-85
2023-02-21T01:06:26.929Z,-84
2023-02-21T01:09:12.516Z,-85
2023-02-21T01:12:06.257Z,-84
2023-02-21T01:14:52.272Z,-84
2023-02-21T01:17:38.252Z,-85
2023-02-21T01:20:27.029Z,-84
2023-02-21T01:23:12.987Z,-84
2023-02-21T01:25:58.915Z,-85
2023-02-21T01:28:44.678Z,-84
2023-02-21T01:31:35.297Z,-85
2023-02-21T01:34:21.279Z,-84
2023-02-21T01:37:08.705Z,-84
2023-02-21T01:39:54.680Z,-84
2023-02-21T01:42:40.736Z,-85
2023-02-21T01:46:00.988Z,-84
2023-02-21T01:48:49.512Z,-86
2023-02-21T01:51:41.240Z,-86
2023-02-21T01:54:30.387Z,-85
2023-02-21T01:57:20.900Z,-86
2023-02-21T02:00:08.028Z,-86
2023-02-21T02:03:06.884Z,-86
2023-02-21T02:05:54.835Z,-85
2023-02-21T02:08:49.643Z,-86
2023-02-21T02:12:15.520Z,-86
2023-02-21T02:15:24.881Z,-86
2023-02-21T02:18:18.392Z,-87
2023-02-21T02:21:42.841Z,-86
2023-02-21T02:25:01.844Z,-86
2023-02-21T02:27:54.932Z,-86
2023-02-21T02:31:29.174Z,-87
2023-02-21T02:34:42.205Z,-86
2023-02-21T02:37:22.895Z,-86
2023-02-21T02:40:01.612Z,-85
2023-02-21T02:42:50.320Z,-86
2023-02-21T02:45:27.812Z,-85
2023-02-21T02:48:05.135Z,-86
2023-02-21T02:50:35.628Z,-86
2023-02-21T02:53:05.699Z,-86
2023-02-21T02:55:43.104Z,-86
2023-02-21T02:58:13.345Z,-87
2023-02-21T03:00:51.584Z,-86
2023-02-21T03:03:49.729Z,-85
2023-02-21T03:06:35.790Z,-86
2023-02-21T03:09:15.788Z,-86
2023-02-21T03:12:02.405Z,-86
2023-02-21T03:14:39.780Z,-86
2023-02-21T03:17:14.777Z,-86
2023-02-21T03:19:47.940Z,-86
2023-02-21T03:22:23.198Z,-86
2023-02-21T03:24:53.383Z,-86
2023-02-21T03:27:24.338Z,-86
2023-02-21T03:29:55.568Z,-86
2023-02-21T03:32:30.502Z,-86
2023-02-21T03:34:59.167Z,-86
2023-02-21T03:37:36.262Z,-84
2023-02-21T03:40:08.681Z,-86
2023-02-21T03:42:37.238Z,-86
2023-02-21T03:45:06.653Z,-84
2023-02-21T03:47:35.193Z,-87
2023-02-21T03:50:05.070Z,-86
2023-02-21T03:52:35.192Z,-86
2023-02-21T03:55:03.767Z,-86
2023-02-21T03:57:32.533Z,-86
2023-02-21T04:00:01.437Z,-86
2023-02-21T04:02:30.221Z,-86
2023-02-21T04:04:58.741Z,-87
2023-02-21T04:07:27.513Z,-86
2023-02-21T04:09:57.529Z,-86
2023-02-21T04:12:27.972Z,-87
2023-02-21T04:14:58.744Z,-87
2023-02-21T04:17:27.510Z,-85
2023-02-21T04:19:56.077Z,-86
2023-02-21T04:22:24.727Z,-87
2023-02-21T04:24:53.529Z,-87
2023-02-21T04:27:23.493Z,-87
2023-02-21T04:29:52.303Z,-86
2023-02-21T04:32:20.915Z,-87
2023-02-21T04:34:49.537Z,-87
2023-02-21T04:37:18.190Z,-87
2023-02-21T04:39:46.754Z,-87
2023-02-21T04:42:15.251Z,-86
2023-02-21T04:44:54.967Z,-86
2023-02-21T04:47:28.093Z,-87
2023-02-21T04:49:56.667Z,-87
2023-02-21T04:52:26.578Z,-86
2023-02-21T04:54:55.286Z,-86
2023-02-21T04:57:24.031Z,-86
2023-02-21T04:59:59.941Z,-86
2023-02-21T05:02:29.377Z,-86
2023-02-21T05:04:58.020Z,-86
2023-02-21T05:07:26.659Z,-86
2023-02-21T05:09:55.195Z,-86
2023-02-21T05:12:24.098Z,-86
2023-02-21T05:14:52.736Z,-85
2023-02-21T05:17:22.611Z,-86
2023-02-21T05:19:51.923Z,-86
2023-02-21T05:22:21.144Z,-85
2023-02-21T05:24:50.474Z,-86
2023-02-21T05:27:23.547Z,-86
2023-02-21T05:29:54.686Z,-86
2023-02-21T05:32:24.781Z,-86
2023-02-21T05:34:53.393Z,-86
2023-02-21T05:37:22.200Z,-85
2023-02-21T05:39:50.969Z,-86
2023-02-21T05:42:19.667Z,-85
2023-02-21T05:44:49.266Z,-85
2023-02-21T05:47:18.663Z,-85
2023-02-21T05:49:48.823Z,-86
2023-02-21T05:52:19.230Z,-85
2023-02-21T05:54:47.947Z,-87
2023-02-21T05:57:16.612Z,-87
2023-02-21T05:59:45.263Z,-86
2023-02-21T06:02:13.734Z,-85
2023-02-21T06:04:42.603Z,-86
2023-02-21T06:07:12.627Z,-86
2023-02-21T06:09:41.561Z,-86
2023-02-21T06:12:10.122Z,-86
2023-02-21T06:14:38.744Z,-85
2023-02-21T06:17:07.339Z,-85
2023-02-21T06:19:35.852Z,-84
2023-02-21T06:22:04.497Z,-85
2023-02-21T06:24:34.552Z,-85
2023-02-21T06:27:03.883Z,-85
2023-02-21T06:29:32.698Z,-85
2023-02-21T06:32:02.460Z,-86
2023-02-21T06:34:31.114Z,-86
2023-02-21T06:36:59.597Z,-86
2023-02-21T06:39:28.257Z,-85
2023-02-21T06:41:58.420Z,-85
2023-02-21T06:44:27.066Z,-85
2023-02-21T06:46:55.948Z,-85
2023-02-21T06:49:24.517Z,-85
2023-02-21T06:51:53.240Z,-85
2023-02-21T06:54:22.040Z,-85
2023-02-21T06:56:50.899Z,-86
2023-02-21T06:59:21.124Z,-88
2023-02-21T07:01:50.171Z,-84
2023-02-21T07:04:19.028Z,-85
2023-02-21T07:06:47.627Z,-86
2023-02-21T07:09:18.022Z,-85
2023-02-21T07:11:47.237Z,-86
2023-02-21T07:14:16.502Z,-86
2023-02-21T07:16:46.799Z,-86
2023-02-21T07:21:45.403Z,-86
2023-02-21T07:24:15.984Z,-86
2023-02-21T07:26:44.734Z,-86
2023-02-21T07:29:13.737Z,-87
2023-02-21T07:31:42.435Z,-87
2023-02-21T07:34:13.504Z,-87
2023-02-21T07:36:42.132Z,-87
2023-02-21T07:39:11.032Z,-86
2023-02-21T07:41:39.567Z,-86
2023-02-21T07:44:08.299Z,-87
2023-02-21T07:46:37.163Z,-87
2023-02-21T07:49:05.815Z,-87
2023-02-21T07:51:36.299Z,-87
2023-02-21T07:54:05.134Z,-87
2023-02-21T07:56:33.987Z,-87
2023-02-21T07:59:02.987Z,-87
2023-02-21T08:01:31.703Z,-87
2023-02-21T08:04:00.416Z,-87
2023-02-21T08:06:29.383Z,-87
2023-02-21T08:08:59.465Z,-88
2023-02-21T08:11:28.005Z,-87
2023-02-21T08:13:57.063Z,-87
2023-02-21T08:16:26.168Z,-87
2023-02-21T08:18:54.849Z,-89
2023-02-21T08:21:23.565Z,-88
2023-02-21T08:23:55.371Z,-88
2023-02-21T08:26:25.475Z,-88
2023-02-21T08:28:54.132Z,-88
2023-02-21T08:31:24.952Z,-89
2023-02-21T08:33:53.827Z,-87
2023-02-21T08:36:25.547Z,-88
2023-02-21T08:38:54.135Z,-89
2023-02-21T08:41:25.824Z,-88
2023-02-21T08:43:54.292Z,-83
2023-02-21T08:46:22.900Z,-83
2023-02-21T08:48:51.430Z,-84
2023-02-21T08:51:20.015Z,-84
2023-02-21T08:53:48.529Z,-84
2023-02-21T08:56:20.671Z,-84
2023-02-21T08:58:51.251Z,-89
2023-02-21T09:01:19.779Z,-84
2023-02-21T09:03:48.457Z,-83
2023-02-21T09:06:18.378Z,-83
2023-02-21T09:08:46.901Z,-83
2023-02-21T09:11:15.737Z,-83
2023-02-21T09:13:44.451Z,-83
2023-02-21T09:16:14.364Z,-83
2023-02-21T09:18:42.877Z,-84
2023-02-21T09:21:11.356Z,-83
2023-02-21T09:23:39.806Z,-83
2023-02-21T09:26:08.271Z,-82
2023-02-21T09:28:43.413Z,-83
2023-02-21T09:31:14.025Z,-84
2023-02-21T09:33:43.050Z,-83
2023-02-21T09:36:12.339Z,-83
2023-02-21T09:38:42.144Z,-83
2023-02-21T09:41:15.738Z,-83
2023-02-21T09:43:48.661Z,-81
2023-02-21T09:46:34.240Z,-83
2023-02-21T09:49:04.863Z,-82
2023-02-21T09:51:37.179Z,-83
2023-02-21T09:54:08.726Z,-83
2023-02-21T09:56:42.183Z,-81
2023-02-21T09:59:13.622Z,-83
2023-02-21T10:02:16.180Z,-83
2023-02-21T10:05:04.842Z,-82
2023-02-21T10:07:44.923Z,-82
2023-02-21T10:10:20.688Z,-82
2023-02-21T10:12:56.919Z,-82
2023-02-21T10:15:44.751Z,-83
2023-02-21T10:18:33.825Z,-85
2023-02-21T10:21:10.694Z,-83
2023-02-21T10:23:46.746Z,-83
2023-02-21T10:26:21.711Z,-83
2023-02-21T10:28:51.678Z,-83
2023-02-21T10:31:31.722Z,-83
2023-02-21T10:34:02.925Z,-83
2023-02-21T10:36:31.588Z,-83
2023-02-21T10:39:08.071Z,-83
2023-02-21T10:41:41.764Z,-84
2023-02-21T10:44:19.109Z,-83
2023-02-21T10:46:59.759Z,-83
2023-02-21T10:49:37.852Z,-83
2023-02-21T10:52:12.109Z,-82
2023-02-21T10:54:41.428Z,-83
2023-02-21T10:57:17.476Z,-84
2023-02-21T10:59:50.821Z,-83
2023-02-21T11:02:35.293Z,-84
2023-02-21T11:05:17.265Z,-83
2023-02-21T11:08:00.569Z,-83
2023-02-21T11:10:33.857Z,-85
2023-02-21T11:13:17.162Z,-84
2023-02-21T11:15:49.760Z,-85
2023-02-21T11:18:27.872Z,-83
2023-02-21T11:21:15.561Z,-84
2023-02-21T11:23:57.976Z,-82
2023-02-21T11:26:30.312Z,-82
2023-02-21T11:29:13.616Z,-82
2023-02-21T11:31:43.436Z,-82
2023-02-21T11:34:16.228Z,-82
2023-02-21T11:36:49.496Z,-83
2023-02-21T11:39:27.721Z,-83
2023-02-21T11:41:58.442Z,-83
2023-02-21T11:44:31.973Z,-83
2023-02-21T11:47:15.254Z,-83
2023-02-21T11:49:55.633Z,-82
2023-02-21T11:52:34.776Z,-82
2023-02-21T11:55:03.501Z,-83
2023-02-21T11:57:45.036Z,-83
2023-02-21T12:00:26.931Z,-84
2023-02-21T12:03:25.237Z,-82
2023-02-21T12:06:04.367Z,-82
2023-02-21T12:08:51.943Z,-83
2023-02-21T12:11:38.139Z,-83
2023-02-21T12:14:39.113Z,-83
2023-02-21T12:17:33.103Z,-82
2023-02-21T12:20:43.270Z,-83
2023-02-21T12:23:25.129Z,-83
2023-02-21T12:26:31.311Z,-82
2023-02-21T12:29:31.926Z,-82
2023-02-21T12:32:32.686Z,-83
2023-02-21T12:35:35.048Z,-84
2023-02-21T12:38:11.115Z,-82
2023-02-21T12:40:56.426Z,-82
2023-02-21T12:43:51.267Z,-81
2023-02-21T12:46:29.797Z,-80
2023-02-21T12:49:06.315Z,-81
2023-02-21T12:51:42.416Z,-81
2023-02-21T12:54:18.148Z,-81
2023-02-21T12:56:54.567Z,-82
2023-02-21T12:59:32.817Z,-81
2023-02-21T13:02:12.216Z,-82
2023-02-21T13:04:56.768Z,-81
2023-02-21T13:07:34.052Z,-81
2023-02-21T13:10:07.685Z,-82
2023-02-21T13:12:46.187Z,-81
2023-02-21T13:15:23.029Z,-81
2023-02-21T13:18:02.573Z,-81
2023-02-21T13:20:38.164Z,-82
2023-02-21T13:23:44.800Z,-82
2023-02-21T13:26:47.548Z,-82
2023-02-21T13:29:23.834Z,-78
2023-02-21T13:32:01.875Z,-82
2023-02-21T13:34:38.169Z,-82
2023-02-21T13:37:14.934Z,-82
2023-02-21T13:39:53.740Z,-82
2023-02-21T13:42:26.579Z,-81
2023-02-21T13:45:14.337Z,-82
2023-02-21T13:48:30.037Z,-83
2023-02-21T13:51:00.695Z,-84
2023-02-21T13:53:37.132Z,-82
2023-02-21T13:56:20.514Z,-82
2023-02-21T13:58:50.775Z,-82
2023-02-21T14:01:44.060Z,-83
2023-02-21T14:05:07.199Z,-84
2023-02-21T14:08:01.098Z,-83
2023-02-21T14:10:44.638Z,-83
2023-02-21T14:13:26.123Z,-83
2023-02-21T14:16:14.757Z,-85
2023-02-21T14:18:50.474Z,-83
2023-02-21T14:21:28.617Z,-84
2023-02-21T14:24:02.850Z,-82
2023-02-21T14:26:45.157Z,-82
2023-02-21T14:29:29.945Z,-83
2023-02-21T14:32:18.811Z,-81
2023-02-21T14:34:57.380Z,-81
2023-02-21T14:37:35.578Z,-81
2023-02-21T14:40:22.517Z,-81
2023-02-21T14:43:10.927Z,-81
2023-02-21T14:46:01.992Z,-84
2023-02-21T14:49:02.048Z,-84
2023-02-21T14:52:04.762Z,-83
2023-02-21T14:55:26.672Z,-83
2023-02-21T14:58:43.658Z,-82
2023-02-21T15:01:31.393Z,-83
2023-02-21T15:04:14.241Z,-83
2023-02-21T15:06:53.626Z,-82
2023-02-21T15:09:23.054Z,-83
2023-02-21T15:11:53.180Z,-81
2023-02-21T15:14:25.682Z,-81
2023-02-21T15:16:58.451Z,-81
2023-02-21T15:19:31.989Z,-82
2023-02-21T15:22:25.111Z,-81
2023-02-21T15:25:22.043Z,-81
2023-02-21T15:28:08.172Z,-81
2023-02-21T15:30:41.432Z,-82
2023-02-21T15:33:18.737Z,-83
2023-02-21T15:35:52.566Z,-82
2023-02-21T15:38:31.006Z,-82
2023-02-21T15:41:07.467Z,-82
2023-02-21T15:43:49.685Z,-82
2023-02-21T15:46:23.529Z,-82
2023-02-21T15:48:53.203Z,-83
2023-02-21T15:51:22.853Z,-83
2023-02-21T15:54:27.099Z,-84
2023-02-21T15:57:22.708Z,-82
2023-02-21T16:00:18.890Z,-84
2023-02-21T16:02:47.408Z,-82
2023-02-21T16:05:29.081Z,-82
2023-02-21T16:08:04.722Z,-80
2023-02-21T16:10:34.250Z,-81
2023-02-21T16:13:03.629Z,-81
2023-02-21T16:15:36.386Z,-81
2023-02-21T16:18:10.071Z,-81
2023-02-21T16:20:41.579Z,-81
2023-02-21T16:23:26.466Z,-82
2023-02-21T16:26:01.212Z,-82
2023-02-21T16:28:30.622Z,-81
2023-02-21T16:31:03.836Z,-80
2023-02-21T16:33:33.062Z,-80
2023-02-21T16:36:06.997Z,-79
2023-02-21T16:38:35.668Z,-79
2023-02-21T16:41:04.267Z,-80
2023-02-21T16:43:35.099Z,-81
2023-02-21T16:46:05.400Z,-80
2023-02-21T16:48:34.103Z,-79
2023-02-21T16:51:05.800Z,-80
2023-02-21T16:53:34.260Z,-80
2023-02-21T16:56:03.821Z,-79
2023-02-21T16:58:37.501Z,-83
2023-02-21T17:01:18.594Z,-81
2023-02-21T17:03:47.548Z,-82
2023-02-21T17:06:20.934Z,-82
2023-02-21T17:08:49.579Z,-83
2023-02-21T17:11:18.316Z,-82
2023-02-21T17:13:46.884Z,-78
2023-02-21T17:16:16.862Z,-79
2023-02-21T17:18:46.019Z,-83
2023-02-21T17:21:14.909Z,-84
2023-02-21T17:23:43.779Z,-84
2023-02-21T17:26:13.220Z,-84
2023-02-21T17:28:41.841Z,-84
2023-02-21T17:31:10.469Z,-83
2023-02-21T17:33:41.796Z,-84
2023-02-21T17:36:16.615Z,-83
2023-02-21T17:38:46.152Z,-83
2023-02-21T17:41:16.077Z,-84
2023-02-21T17:43:44.913Z,-83
2023-02-21T17:46:14.864Z,-83
2023-02-21T17:48:45.788Z,-83
2023-02-21T17:51:22.348Z,-84
2023-02-21T17:53:51.345Z,-83
2023-02-21T17:56:22.517Z,-83
2023-02-21T17:58:51.360Z,-83
2023-02-21T18:01:21.494Z,-83
2023-02-21T18:03:51.547Z,-83
2023-02-21T18:06:22.646Z,-84
2023-02-21T18:08:51.154Z,-84
2023-02-21T18:11:20.212Z,-84
2023-02-21T18:13:49.178Z,-83
2023-02-21T18:16:17.848Z,-83
2023-02-21T18:18:46.373Z,-84
2023-02-21T18:21:17.196Z,-83
2023-02-21T18:23:47.437Z,-83
2023-02-21T18:26:16.968Z,-82
2023-02-21T18:28:45.391Z,-82
2023-02-21T18:31:18.286Z,-83
2023-02-21T18:33:48.076Z,-82
2023-02-21T18:36:18.230Z,-82
2023-02-21T18:38:46.748Z,-83
2023-02-21T18:41:17.848Z,-83
2023-02-21T18:43:46.359Z,-83
2023-02-21T18:46:18.663Z,-82
2023-02-21T18:48:49.475Z,-82
2023-02-21T18:51:21.723Z,-83
2023-02-21T18:53:51.126Z,-81
2023-02-21T18:56:21.632Z,-83
2023-02-21T18:58:50.702Z,-82
2023-02-21T19:01:21.870Z,-82
2023-02-21T19:03:52.176Z,-83
2023-02-21T19:06:25.033Z,-82
2023-02-21T19:08:55.384Z,-82
2023-02-21T19:11:24.015Z,-82
2023-02-21T19:13:52.533Z,-83
2023-02-21T19:16:21.059Z,-84
2023-02-21T19:18:51.438Z,-83
2023-02-21T19:21:21.285Z,-83
2023-02-21T19:23:49.919Z,-83
2023-02-21T19:26:19.301Z,-82
2023-02-21T19:28:48.424Z,-83
2023-02-21T19:31:20.662Z,-83
2023-02-21T19:33:49.375Z,-83
2023-02-21T19:36:18.140Z,-83
2023-02-21T19:38:48.318Z,-82
2023-02-21T19:41:17.997Z,-83
2023-02-21T19:43:46.893Z,-83
2023-02-21T19:46:23.813Z,-83
2023-02-21T19:48:53.490Z,-83
2023-02-21T19:51:25.983Z,-84
2023-02-21T19:53:58.930Z,-83
2023-02-21T19:56:27.578Z,-83
2023-02-21T19:58:56.090Z,-82
2023-02-21T20:01:26.497Z,-83
2023-02-21T20:03:55.031Z,-83
2023-02-21T20:06:24.838Z,-83
2023-02-21T20:08:53.302Z,-83
2023-02-21T20:11:25.361Z,-83
2023-02-21T20:13:53.872Z,-83
2023-02-21T20:16:22.450Z,-83
2023-02-21T20:18:54.300Z,-83
2023-02-21T20:21:26.404Z,-83
2023-02-21T20:23:55.191Z,-84
2023-02-21T20:26:25.863Z,-83
2023-02-21T20:28:55.832Z,-83
2023-02-21T20:31:28.851Z,-83
2023-02-21T20:34:02.707Z,-83
2023-02-21T20:36:34.217Z,-83
2023-02-21T20:39:04.668Z,-83
2023-02-21T20:41:38.954Z,-83
2023-02-21T20:44:07.518Z,-82
2023-02-21T20:46:38.190Z,-83
2023-02-21T20:49:07.112Z,-83
2023-02-21T20:51:39.131Z,-83
2023-02-21T20:54:11.073Z,-82
2023-02-21T20:56:43.078Z,-80
2023-02-21T20:59:18.447Z,-80
2023-02-21T21:01:49.194Z,-83
2023-02-21T21:04:19.848Z,-83
2023-02-21T21:06:49.383Z,-83
2023-02-21T21:09:28.866Z,-83
2023-02-21T21:12:00.833Z,-84
2023-02-21T21:14:31.093Z,-83
2023-02-21T21:17:00.692Z,-83
2023-02-21T21:19:33.978Z,-86
2023-02-21T21:22:03.752Z,-84
2023-02-21T21:24:33.969Z,-84
2023-02-21T21:27:08.774Z,-83
2023-02-21T21:29:42.351Z,-84
2023-02-21T21:32:12.188Z,-83
2023-02-21T21:34:44.852Z,-84
2023-02-21T21:37:14.491Z,-83
2023-02-21T21:39:45.914Z,-83
2023-02-21T21:42:17.260Z,-84
2023-02-21T21:44:51.936Z,-83
2023-02-21T21:47:22.708Z,-84
2023-02-21T21:49:51.930Z,-83
2023-02-21T21:52:23.840Z,-83
2023-02-21T21:54:52.234Z,-83
2023-02-21T21:57:23.173Z,-83
2023-02-21T21:59:51.838Z,-83
2023-02-21T22:02:21.894Z,-83
2023-02-21T22:04:53.359Z,-83
2023-02-21T22:07:23.035Z,-83
2023-02-21T22:09:51.448Z,-83
2023-02-21T22:12:22.078Z,-83
2023-02-21T22:14:50.601Z,-84
2023-02-21T22:17:19.059Z,-83
2023-02-21T22:19:47.834Z,-83
2023-02-21T22:22:16.443Z,-83
2023-02-21T22:24:44.843Z,-83
2023-02-21T22:27:13.287Z,-83
2023-02-21T22:29:43.538Z,-82
2023-02-21T22:32:12.650Z,-83
2023-02-21T22:34:41.132Z,-84
2023-02-21T22:37:10.429Z,-83
2023-02-21T22:39:39.712Z,-83
2023-02-21T22:42:09.026Z,-83
2023-02-21T22:44:37.700Z,-83
2023-02-21T22:47:07.595Z,-84
2023-02-21T22:49:36.090Z,-84
2023-02-21T22:52:04.943Z,-83
2023-02-21T22:54:33.423Z,-83
2023-02-21T22:57:03.082Z,-83
2023-02-21T22:59:35.346Z,-83
2023-02-21T23:02:04.742Z,-83
2023-02-21T23:04:37.897Z,-83
2023-02-21T23:07:06.571Z,-83
2023-02-21T23:09:37.326Z,-84
2023-02-21T23:12:07.334Z,-83
2023-02-21T23:14:36.738Z,-84
2023-02-21T23:17:05.233Z,-83
2023-02-21T23:19:35.144Z,-84
2023-02-21T23:22:05.345Z,-83
2023-02-21T23:24:34.098Z,-83
2023-02-21T23:27:03.059Z,-83
2023-02-21T23:29:31.583Z,-84
2023-02-21T23:32:09.553Z,-83
2023-02-21T23:34:42.945Z,-83
2023-02-21T23:37:13.154Z,-84
2023-02-21T23:39:46.756Z,-83
2023-02-21T23:42:17.624Z,-83
2023-02-21T23:44:46.117Z,-83
2023-02-21T23:47:14.516Z,-83
2023-02-21T23:49:44.893Z,-83
2023-02-21T23:52:13.408Z,-83
2023-02-21T23:54:42.188Z,-82
2023-02-21T23:57:10.583Z,-84
2023-02-21T23:59:39.006Z,-83
